Time;durP1;ratioP1;P1;durP2;ratioP2;P2;SDS_P1;SDS_P2;PMS_P1;PMS_P2;Temp;Humidity;BMP_temperature;BMP_pressure;BME280_temperature;BME280_humidity;BME280_pressure;Samples;Min_cycle;Max_cycle;Signal;HPM_P1;HPM_P2
2022/03/03 00:02:03;;;;;;;46.60;31.90;;;7.40;99.90;;;;;;4956807;28;20384;-70
2022/03/03 00:04:30;;;;;;;40.50;29.90;;;7.40;99.90;;;;;;4959970;28;20111;-70
2022/03/03 00:06:57;;;;;;;43.95;31.52;;;7.40;99.90;;;;;;4984766;28;20059;-70
2022/03/03 00:09:24;;;;;;;44.55;30.52;;;7.40;99.90;;;;;;4963317;28;20047;-70
2022/03/03 00:11:51;;;;;;;44.05;31.25;;;7.40;99.90;;;;;;4952559;29;20054;-70
2022/03/03 00:14:20;;;;;;;43.72;31.55;;;7.40;99.90;;;;;;4953896;28;20039;-71
2022/03/03 00:16:47;;;;;;;49.88;29.67;;;7.40;99.90;;;;;;4953606;28;20058;-70
2022/03/03 00:19:14;;;;;;;41.10;29.40;;;7.40;99.90;;;;;;4954493;28;20130;-70
2022/03/03 00:21:41;;;;;;;43.03;30.52;;;7.40;99.90;;;;;;4970332;28;20209;-70
2022/03/03 00:24:08;;;;;;;42.50;30.65;;;7.40;99.90;;;;;;4957475;28;20107;-71
2022/03/03 00:26:35;;;;;;;42.40;31.58;;;7.40;99.90;;;;;;4988077;28;20054;-70
2022/03/03 00:29:02;;;;;;;43.28;29.50;;;7.40;99.90;;;;;;4962217;28;20053;-70
2022/03/03 00:31:29;;;;;;;44.60;29.25;;;7.40;99.90;;;;;;4939567;29;20513;-70
2022/03/03 00:33:59;;;;;;;44.40;30.50;;;7.40;99.90;;;;;;4980018;28;20056;-70
2022/03/03 00:36:27;;;;;;;45.28;30.05;;;7.40;99.90;;;;;;4960510;28;20441;-70
2022/03/03 00:38:54;;;;;;;47.88;31.95;;;7.40;99.90;;;;;;4959479;28;20066;-70
2022/03/03 00:41:21;;;;;;;41.03;30.40;;;7.40;99.90;;;;;;4969060;28;20043;-70
2022/03/03 00:43:48;;;;;;;39.95;29.88;;;7.40;99.90;;;;;;4988136;28;20047;-70
2022/03/03 00:46:18;;;;;;;;;;;7.40;99.90;;;;;;4956967;28;20567;-70
2022/03/03 00:48:46;;;;;;;43.95;28.08;;;7.30;99.90;;;;;;4965260;28;19969;-70
2022/03/03 00:51:12;;;;;;;45.97;31.40;;;7.30;99.90;;;;;;4961393;28;20057;-70
2022/03/03 00:53:42;;;;;;;40.40;29.60;;;7.30;99.90;;;;;;4974383;28;20139;-70
2022/03/03 00:56:09;;;;;;;41.83;29.20;;;7.30;99.90;;;;;;4961346;28;20054;-70
2022/03/03 00:58:36;;;;;;;39.97;27.88;;;7.30;99.90;;;;;;4993754;28;20145;-70
2022/03/03 01:01:03;;;;;;;43.85;31.05;;;7.30;99.90;;;;;;4971456;28;20410;-70
2022/03/03 01:03:30;;;;;;;43.75;28.88;;;7.30;99.90;;;;;;4964212;28;20047;-70
2022/03/03 01:05:57;;;;;;;41.50;28.52;;;7.30;99.90;;;;;;4969423;28;20047;-70
2022/03/03 01:08:24;;;;;;;41.17;29.13;;;7.40;99.90;;;;;;4962119;28;20047;-71
2022/03/03 01:10:51;;;;;;;41.08;29.23;;;7.40;99.90;;;;;;4964283;28;20105;-70
2022/03/03 01:13:20;;;;;;;38.72;29.23;;;7.30;99.90;;;;;;4958914;28;20514;-71
2022/03/03 01:15:47;;;;;;;41.77;31.03;;;7.30;99.90;;;;;;4957641;28;20051;-70
2022/03/03 01:18:16;;;;;;;46.72;29.60;;;7.30;99.90;;;;;;4956350;28;20081;-70
2022/03/03 01:20:46;;;;;;;43.92;30.20;;;7.30;99.90;;;;;;4986513;28;20046;-70
2022/03/03 01:23:13;;;;;;;46.03;30.77;;;7.30;99.90;;;;;;4964230;28;20057;-70
2022/03/03 01:25:40;;;;;;;44.55;30.88;;;7.30;99.90;;;;;;4987438;28;20043;-71
2022/03/03 01:28:07;;;;;;;48.88;29.85;;;7.30;99.90;;;;;;4969140;28;20071;-70
2022/03/03 01:30:34;;;;;;;41.45;28.42;;;7.30;99.90;;;;;;4987378;28;20767;-70
2022/03/03 01:33:01;;;;;;;45.92;30.75;;;7.30;99.90;;;;;;4956773;28;20142;-70
2022/03/03 01:35:28;;;;;;;41.53;29.85;;;7.30;99.90;;;;;;4957368;28;20408;-70
2022/03/03 01:37:55;;;;;;;46.28;30.33;;;7.30;99.90;;;;;;4971298;28;20893;-70
2022/03/03 01:40:23;;;;;;;44.17;30.15;;;7.30;99.90;;;;;;4967814;28;20053;-70
2022/03/03 01:42:50;;;;;;;44.67;32.63;;;7.30;99.90;;;;;;4973824;28;20058;-70
2022/03/03 01:45:17;;;;;;;38.97;27.48;;;7.40;99.90;;;;;;4972839;28;20051;-70
2022/03/03 01:47:44;;;;;;;40.47;30.95;;;7.40;99.90;;;;;;4972262;28;20050;-70
2022/03/03 01:50:11;;;;;;;42.88;31.00;;;7.40;99.90;;;;;;4955596;28;20043;-70
2022/03/03 01:52:38;;;;;;;50.13;33.85;;;7.40;99.90;;;;;;4970242;28;20134;-70
2022/03/03 01:55:06;;;;;;;43.15;31.42;;;7.40;99.90;;;;;;4955799;28;20043;-70
2022/03/03 01:57:33;;;;;;;44.30;31.73;;;7.50;99.90;;;;;;4972210;28;20053;-70
2022/03/03 02:00:00;;;;;;;40.22;29.75;;;7.50;99.90;;;;;;4971347;28;20054;-71
2022/03/03 02:02:27;;;;;;;43.88;31.60;;;7.40;99.90;;;;;;4955219;28;20047;-70
2022/03/03 02:04:54;;;;;;;45.38;31.45;;;7.50;99.90;;;;;;4957440;28;20047;-70
2022/03/03 02:07:22;;;;;;;44.20;30.40;;;7.50;99.90;;;;;;4972047;28;20131;-71
2022/03/03 02:09:49;;;;;;;43.03;29.35;;;7.50;99.90;;;;;;4939508;29;20049;-70
2022/03/03 02:12:15;;;;;;;42.70;31.40;;;7.50;99.90;;;;;;4969626;28;20055;-70
2022/03/03 02:14:46;;;;;;;40.28;29.40;;;7.50;99.90;;;;;;4955985;28;20062;-70
2022/03/03 02:17:14;;;;;;;44.38;31.45;;;7.60;99.90;;;;;;4954778;28;20155;-70
2022/03/03 02:19:44;;;;;;;44.95;29.67;;;7.50;99.90;;;;;;4977168;28;20142;-70
2022/03/03 02:22:11;;;;;;;44.92;30.65;;;7.60;99.90;;;;;;4955427;28;20141;-70
2022/03/03 02:24:38;;;;;;;46.58;32.25;;;7.60;99.90;;;;;;4959053;28;20057;-70
2022/03/03 02:27:05;;;;;;;46.95;33.17;;;7.50;99.90;;;;;;4972390;28;20051;-70
2022/03/03 02:29:33;;;;;;;41.53;31.00;;;7.60;99.90;;;;;;4960593;28;20125;-70
2022/03/03 02:32:00;;;;;;;45.22;30.00;;;7.60;99.90;;;;;;4968746;28;20070;-70
2022/03/03 02:34:29;;;;;;;43.92;30.65;;;7.50;99.90;;;;;;4986116;28;20138;-70
2022/03/03 02:36:56;;;;;;;43.20;31.10;;;7.50;99.90;;;;;;4987361;28;20047;-70
2022/03/03 02:39:23;;;;;;;39.13;30.88;;;7.50;99.90;;;;;;4963462;28;20134;-70
2022/03/03 02:41:50;;;;;;;42.25;29.92;;;7.50;99.90;;;;;;4967644;28;20410;-70
2022/03/03 02:44:17;;;;;;;42.63;30.20;;;7.50;99.90;;;;;;4963107;28;20422;-70
2022/03/03 02:46:44;;;;;;;37.53;29.55;;;7.50;99.90;;;;;;4968749;28;20055;-70
2022/03/03 02:49:11;;;;;;;44.63;30.83;;;7.60;99.90;;;;;;4984577;28;20047;-70
2022/03/03 02:51:38;;;;;;;42.85;31.50;;;7.60;99.90;;;;;;4956055;28;20444;-70
2022/03/03 02:54:05;;;;;;;49.60;31.00;;;7.60;99.90;;;;;;4985107;28;20138;-71
2022/03/03 02:56:32;;;;;;;42.28;30.85;;;7.60;99.90;;;;;;4958646;28;20514;-70
2022/03/03 02:58:59;;;;;;;45.33;30.55;;;7.60;99.90;;;;;;4964983;28;20483;-70
2022/03/03 03:01:26;;;;;;;42.70;30.20;;;7.60;99.90;;;;;;4986595;28;20047;-70
2022/03/03 03:03:53;;;;;;;45.55;32.40;;;7.60;99.90;;;;;;4940481;29;20075;-70
2022/03/03 03:06:20;;;;;;;49.30;31.10;;;7.60;99.90;;;;;;4982759;28;20055;-71
2022/03/03 03:08:47;;;;;;;43.42;29.83;;;7.60;99.90;;;;;;4956152;28;20063;-70
2022/03/03 03:11:14;;;;;;;44.03;29.23;;;7.60;99.90;;;;;;4965269;28;20142;-70
2022/03/03 03:13:41;;;;;;;42.38;30.85;;;7.60;99.90;;;;;;4964492;28;20055;-70
2022/03/03 03:16:08;;;;;;;41.78;29.85;;;7.50;99.90;;;;;;4960529;28;20138;-70
2022/03/03 03:18:35;;;;;;;45.35;31.35;;;7.60;99.90;;;;;;4958197;28;20047;-70
2022/03/03 03:21:02;;;;;;;42.35;30.05;;;7.60;99.90;;;;;;4963251;28;20051;-71
2022/03/03 03:23:29;;;;;;;49.17;32.38;;;7.60;99.90;;;;;;4957322;28;20055;-70
2022/03/03 03:25:56;;;;;;;44.92;31.40;;;7.50;99.90;;;;;;4984339;28;20085;-70
2022/03/03 03:28:24;;;;;;;43.10;31.33;;;7.60;99.90;;;;;;4952473;28;20050;-70
2022/03/03 03:30:51;;;;;;;57.50;34.40;;;7.60;99.90;;;;;;4985816;28;20124;-70
2022/03/03 03:33:18;;;;;;;43.28;30.50;;;7.60;99.90;;;;;;4956433;28;20062;-71
2022/03/03 03:35:45;;;;;;;44.08;33.90;;;7.60;99.90;;;;;;4951672;28;20047;-70
2022/03/03 03:38:12;;;;;;;40.47;29.83;;;7.60;99.90;;;;;;4970038;28;20153;-70
2022/03/03 03:40:40;;;;;;;44.67;31.63;;;7.60;99.90;;;;;;4965572;28;20127;-70
2022/03/03 03:43:07;;;;;;;43.42;32.13;;;7.50;99.90;;;;;;4984396;28;20071;-70
2022/03/03 03:45:35;;;;;;;42.92;31.00;;;7.50;99.90;;;;;;4955152;28;20065;-70
2022/03/03 03:48:02;;;;;;;42.27;30.07;;;7.50;99.90;;;;;;4968064;28;20078;-70
2022/03/03 03:50:29;;;;;;;41.65;30.95;;;7.50;99.90;;;;;;4968861;28;20293;-70
2022/03/03 03:52:56;;;;;;;47.35;32.53;;;7.50;99.90;;;;;;4953218;28;20062;-70
2022/03/03 03:55:23;;;;;;;47.55;32.08;;;7.40;99.90;;;;;;4984752;28;20530;-70
2022/03/03 03:57:50;;;;;;;44.30;32.20;;;7.40;99.90;;;;;;4960587;28;20491;-70
2022/03/03 04:00:17;;;;;;;45.90;31.67;;;7.40;99.90;;;;;;4971108;28;20047;-70
2022/03/03 04:02:45;;;;;;;46.05;32.88;;;7.30;99.90;;;;;;4989373;28;20506;-70
2022/03/03 04:05:13;;;;;;;43.35;32.13;;;7.30;99.90;;;;;;4965335;28;20039;-70
2022/03/03 04:07:40;;;;;;;43.83;32.58;;;7.30;99.90;;;;;;4977469;28;20060;-70
2022/03/03 04:10:07;;;;;;;43.85;30.75;;;7.20;99.90;;;;;;4951261;28;20055;-70
2022/03/03 04:12:34;;;;;;;44.00;33.13;;;7.20;99.90;;;;;;4989907;28;20514;-70
2022/03/03 04:15:02;;;;;;;42.50;31.58;;;7.10;99.90;;;;;;4974623;28;20047;-70
2022/03/03 04:17:29;;;;;;;46.75;33.10;;;7.10;99.90;;;;;;4974574;28;20133;-70
2022/03/03 04:20:03;;;;;;;42.05;31.58;;;7.10;99.90;;;;;;4963569;28;20089;-70
2022/03/03 04:22:30;;;;;;;44.83;33.28;;;7.10;99.90;;;;;;4958850;28;20058;-70
2022/03/03 04:24:57;;;;;;;49.25;32.28;;;7.10;99.90;;;;;;4965874;28;20062;-70
2022/03/03 04:27:25;;;;;;;52.67;33.10;;;7.00;99.90;;;;;;4960641;28;20051;-70
2022/03/03 04:29:52;;;;;;;51.63;34.17;;;7.00;99.90;;;;;;4963313;28;20062;-70
2022/03/03 04:32:19;;;;;;;50.67;35.00;;;7.00;99.90;;;;;;4978067;28;20066;-70
2022/03/03 04:34:45;;;;;;;45.17;31.85;;;7.00;99.90;;;;;;4964603;28;20057;-70
2022/03/03 04:37:12;;;;;;;49.35;32.55;;;7.00;99.90;;;;;;4967836;28;20129;-70
2022/03/03 04:39:39;;;;;;;48.30;33.17;;;7.00;99.90;;;;;;4960520;28;20057;-70
2022/03/03 04:42:06;;;;;;;48.83;31.98;;;7.00;99.90;;;;;;4942711;29;20063;-71
2022/03/03 04:44:33;;;;;;;49.88;35.17;;;7.00;99.90;;;;;;4992363;28;20214;-70
2022/03/03 04:47:00;;;;;;;47.15;33.28;;;6.90;99.90;;;;;;4967629;28;20491;-70
2022/03/03 04:49:27;;;;;;;45.03;32.60;;;6.90;99.90;;;;;;4961455;28;20127;-70
2022/03/03 04:51:54;;;;;;;57.75;35.92;;;6.90;99.90;;;;;;4967632;28;20129;-70
2022/03/03 04:54:21;;;;;;;45.25;32.85;;;6.90;99.90;;;;;;4960519;28;20075;-70
2022/03/03 04:56:48;;;;;;;49.38;33.63;;;6.90;99.90;;;;;;4959175;28;20107;-71
2022/03/03 04:59:15;;;;;;;49.22;32.72;;;7.00;99.90;;;;;;4959400;28;20047;-71
2022/03/03 05:01:42;;;;;;;44.67;31.73;;;7.00;99.90;;;;;;4972230;28;20051;-72
2022/03/03 05:04:09;;;;;;;50.08;34.80;;;6.90;99.90;;;;;;4967832;28;20049;-70
2022/03/03 05:06:40;;;;;;;52.30;33.80;;;6.90;99.90;;;;;;4990302;28;20054;-70
2022/03/03 05:09:07;;;;;;;46.75;31.60;;;6.80;99.90;;;;;;4949174;28;20348;-71
2022/03/03 05:11:34;;;;;;;49.72;33.33;;;6.80;99.90;;;;;;4958271;28;20114;-70
2022/03/03 05:14:01;;;;;;;51.55;34.63;;;6.80;99.90;;;;;;4973290;28;20047;-70
2022/03/03 05:16:28;;;;;;;49.53;35.15;;;6.70;99.90;;;;;;4964337;28;20043;-70
2022/03/03 05:18:57;;;;;;;51.30;35.95;;;6.70;99.90;;;;;;4968938;28;20047;-70
2022/03/03 05:21:24;;;;;;;48.28;34.17;;;6.70;99.90;;;;;;4959398;28;20513;-71
2022/03/03 05:23:51;;;;;;;46.28;32.00;;;6.70;99.90;;;;;;4963004;28;20054;-70
2022/03/03 05:26:18;;;;;;;50.58;34.22;;;6.70;99.90;;;;;;4970982;28;20058;-71
2022/03/03 05:28:45;;;;;;;48.78;33.85;;;6.70;99.90;;;;;;4973438;28;20054;-70
2022/03/03 05:31:12;;;;;;;49.72;34.40;;;6.70;99.90;;;;;;4962003;28;20057;-70
2022/03/03 05:33:39;;;;;;;49.85;34.60;;;6.60;99.90;;;;;;4965778;28;20511;-71
2022/03/03 05:36:07;;;;;;;53.92;35.85;;;6.60;99.90;;;;;;4986945;28;20061;-66
2022/03/03 05:38:34;;;;;;;55.28;40.10;;;6.60;99.90;;;;;;4970508;28;20067;-65
2022/03/03 05:41:02;;;;;;;78.80;52.60;;;6.60;99.90;;;;;;4956386;28;20430;-65
2022/03/03 05:43:29;;;;;;;54.55;37.83;;;6.60;99.90;;;;;;4972155;28;20456;-65
2022/03/03 05:45:57;;;;;;;55.97;36.17;;;6.60;99.90;;;;;;4972086;28;20050;-65
2022/03/03 05:48:25;;;;;;;53.70;36.53;;;6.60;99.90;;;;;;4964862;28;20079;-65
2022/03/03 05:50:53;;;;;;;49.53;37.08;;;6.60;99.90;;;;;;4934657;29;20138;-65
2022/03/03 05:53:21;;;;;;;50.63;35.90;;;6.60;99.90;;;;;;4951516;28;20051;-65
2022/03/03 05:55:52;;;;;;;49.25;34.30;;;6.60;99.90;;;;;;4964270;28;20491;-65
2022/03/03 05:58:25;;;;;;;47.47;34.85;;;6.60;99.90;;;;;;4959452;28;20038;-65
2022/03/03 06:00:54;;;;;;;51.85;34.15;;;6.60;99.90;;;;;;4983842;28;20055;-65
2022/03/03 06:03:23;;;;;;;53.63;35.35;;;6.60;99.90;;;;;;4953365;28;20082;-65
2022/03/03 06:05:51;;;;;;;51.22;34.47;;;6.60;99.90;;;;;;4958365;28;20055;-65
2022/03/03 06:08:30;;;;;;;53.40;35.60;;;6.60;99.90;;;;;;4986351;28;20065;-65
2022/03/03 06:11:01;;;;;;;53.80;37.70;;;6.60;99.90;;;;;;4964658;28;20518;-64
2022/03/03 06:13:35;;;;;;;51.83;36.58;;;6.60;99.90;;;;;;4956550;28;20306;-65
2022/03/03 06:16:03;;;;;;;51.08;35.88;;;6.70;99.90;;;;;;4973790;28;20046;-65
2022/03/03 06:18:33;;;;;;;57.88;40.03;;;6.70;99.90;;;;;;4965472;28;20043;-65
2022/03/03 06:21:00;;;;;;;;;;;6.70;99.90;;;;;;4960268;28;20043;-65
2022/03/03 06:23:27;;;;;;;51.95;32.88;;;6.70;99.90;;;;;;4955932;28;19969;-66
2022/03/03 06:26:03;;;;;;;53.63;35.58;;;6.70;99.90;;;;;;4966529;28;20399;-66
2022/03/03 06:28:30;;;;;;;53.33;35.22;;;6.70;99.90;;;;;;4966461;28;20039;-66
2022/03/03 06:30:57;;;;;;;48.15;33.72;;;6.70;99.90;;;;;;4973774;28;20057;-66
2022/03/03 06:33:25;;;;;;;52.65;36.03;;;6.70;99.90;;;;;;4947778;29;20441;-65
2022/03/03 06:35:52;;;;;;;55.83;38.28;;;6.70;99.90;;;;;;4955509;28;20059;-65
2022/03/03 06:38:19;;;;;;;51.03;36.53;;;6.70;99.90;;;;;;4984954;28;20042;-65
2022/03/03 06:40:46;;;;;;;57.72;34.97;;;6.70;99.90;;;;;;4961255;28;20055;-64
2022/03/03 06:43:13;;;;;;;52.13;36.00;;;6.60;99.90;;;;;;4984770;28;20059;-64
2022/03/03 06:45:40;;;;;;;51.75;37.67;;;6.60;99.90;;;;;;4971860;28;20054;-63
2022/03/03 06:48:07;;;;;;;65.68;38.80;;;6.60;99.90;;;;;;4965385;28;20062;-62
2022/03/03 06:50:36;;;;;;;59.30;41.15;;;6.60;99.90;;;;;;4953688;28;20057;-65
2022/03/03 06:53:04;;;;;;;480.98;340.20;;;6.60;99.90;;;;;;4958660;28;20043;-62
2022/03/03 06:55:31;;;;;;;194.02;143.50;;;6.60;99.90;;;;;;4959874;28;20053;-63
2022/03/03 06:57:58;;;;;;;90.30;65.03;;;6.60;99.90;;;;;;4963262;28;20142;-64
2022/03/03 07:00:33;;;;;;;64.32;43.75;;;6.60;99.90;;;;;;4982698;28;20077;-68
2022/03/03 07:03:01;;;;;;;65.82;44.38;;;6.60;99.90;;;;;;4953577;28;20050;-65
2022/03/03 07:05:30;;;;;;;56.35;40.95;;;6.60;99.90;;;;;;4954123;28;20074;-67
2022/03/03 07:07:57;;;;;;;55.17;39.80;;;6.60;99.90;;;;;;4952911;28;20043;-63
2022/03/03 07:10:25;;;;;;;57.47;39.42;;;6.60;99.90;;;;;;4949964;28;20137;-68
2022/03/03 07:12:56;;;;;;;59.10;37.45;;;6.60;99.90;;;;;;4967835;28;20085;-65
2022/03/03 07:15:24;;;;;;;221.05;152.77;;;6.70;99.90;;;;;;4966324;28;20134;-66
2022/03/03 07:17:53;;;;;;;76.13;54.85;;;6.70;99.90;;;;;;4959421;28;20054;-64
2022/03/03 07:20:29;;;;;;;56.67;39.00;;;6.80;99.90;;;;;;4953384;28;20075;-63
2022/03/03 07:23:03;;;;;;;58.55;40.22;;;6.80;99.90;;;;;;4957551;28;20047;-64
2022/03/03 07:25:37;;;;;;;55.78;37.95;;;6.80;99.90;;;;;;4955503;28;20047;-64
2022/03/03 07:28:06;;;;;;;67.03;43.17;;;6.80;99.90;;;;;;4955207;28;20082;-67
2022/03/03 07:30:35;;;;;;;52.17;36.27;;;6.80;99.90;;;;;;4949618;28;20509;-65
2022/03/03 07:33:13;;;;;;;58.08;39.63;;;6.80;99.90;;;;;;4949451;29;20051;-61
2022/03/03 07:35:41;;;;;;;58.22;39.40;;;6.90;99.90;;;;;;4951792;28;20047;-62
2022/03/03 07:38:14;;;;;;;55.87;39.77;;;6.90;99.90;;;;;;4950326;29;20055;-62
2022/03/03 07:40:42;;;;;;;57.47;41.22;;;7.00;99.90;;;;;;4953538;28;20491;-66
2022/03/03 07:43:12;;;;;;;57.55;39.47;;;7.00;99.90;;;;;;4961465;28;20422;-63
2022/03/03 07:45:40;;;;;;;55.08;39.55;;;7.10;99.90;;;;;;4965565;28;20054;-62
2022/03/03 07:48:07;;;;;;;57.85;38.80;;;7.20;99.90;;;;;;4957316;28;20146;-62
2022/03/03 07:50:39;;;;;;;61.85;41.00;;;7.30;99.90;;;;;;4955744;28;20059;-62
2022/03/03 07:53:12;;;;;;;57.03;39.47;;;7.40;99.90;;;;;;4939778;29;20061;-64
2022/03/03 07:55:42;;;;;;;59.13;41.50;;;7.50;99.90;;;;;;4950447;29;20516;-61
2022/03/03 07:58:16;;;;;;;54.80;38.58;;;7.60;99.90;;;;;;4951274;28;20126;-63
2022/03/03 08:00:49;;;;;;;58.45;39.88;;;7.70;99.90;;;;;;4962520;28;20043;-62
2022/03/03 08:03:17;;;;;;;53.15;38.53;;;7.70;99.90;;;;;;4950852;29;20043;-61
2022/03/03 08:05:45;;;;;;;58.83;42.03;;;7.80;99.90;;;;;;4951104;29;20089;-67
2022/03/03 08:08:16;;;;;;;57.83;41.22;;;7.90;99.90;;;;;;4958978;28;20048;-62
2022/03/03 08:10:44;;;;;;;54.47;39.17;;;7.90;99.90;;;;;;4930970;29;20056;-62
2022/03/03 08:13:13;;;;;;;52.97;39.85;;;8.00;99.90;;;;;;4945327;29;20055;-62
2022/03/03 08:15:41;;;;;;;53.75;39.13;;;8.10;99.90;;;;;;4936614;28;20055;-62
2022/03/03 08:18:08;;;;;;;55.60;41.42;;;8.20;99.90;;;;;;4955108;28;20054;-63
2022/03/03 08:20:36;;;;;;;55.88;42.20;;;8.30;99.90;;;;;;4955903;28;20054;-61
2022/03/03 08:23:03;;;;;;;53.95;40.47;;;8.30;99.90;;;;;;4970412;28;20043;-61
2022/03/03 08:25:30;;;;;;;56.22;41.60;;;8.40;99.90;;;;;;4950025;28;20405;-63
2022/03/03 08:27:57;;;;;;;58.05;44.45;;;8.50;99.90;;;;;;4951291;28;20051;-64
2022/03/03 08:30:24;;;;;;;54.20;40.13;;;8.60;99.90;;;;;;4949413;28;20308;-62
2022/03/03 08:33:17;;;;;;;51.00;41.28;;;8.70;99.90;;;;;;4965464;28;20065;-63
2022/03/03 08:35:54;;;;;;;60.58;42.35;;;8.80;99.90;;;;;;4946092;29;20052;-64
2022/03/03 08:38:34;;;;;;;54.95;41.15;;;8.90;99.90;;;;;;4957448;28;20089;-65
2022/03/03 08:41:02;;;;;;;59.35;43.50;;;8.90;99.90;;;;;;4948330;28;20130;-64
2022/03/03 08:43:31;;;;;;;52.38;39.95;;;9.00;99.90;;;;;;4973616;28;20070;-64
2022/03/03 08:46:02;;;;;;;57.80;42.67;;;9.10;99.90;;;;;;4970144;28;20047;-67
2022/03/03 08:48:31;;;;;;;55.13;39.60;;;9.10;99.90;;;;;;4951758;28;20051;-67
2022/03/03 08:51:02;;;;;;;56.92;41.65;;;9.20;99.90;;;;;;4952441;28;20356;-66
2022/03/03 08:53:29;;;;;;;55.03;40.42;;;9.20;99.90;;;;;;4944649;29;20059;-66
2022/03/03 08:55:58;;;;;;;53.80;40.90;;;9.20;99.90;;;;;;4954029;29;20138;-64
2022/03/03 08:58:25;;;;;;;54.63;40.03;;;9.20;99.90;;;;;;4953682;29;20079;-65
2022/03/03 09:00:52;;;;;;;55.92;40.58;;;9.20;99.90;;;;;;4936201;29;20909;-66
2022/03/03 09:03:23;;;;;;;53.65;40.80;;;9.20;99.90;;;;;;4956105;28;20048;-64
2022/03/03 09:05:50;;;;;;;50.30;37.63;;;9.30;99.90;;;;;;4968018;28;20042;-64
2022/03/03 09:08:17;;;;;;;54.00;40.17;;;9.30;99.90;;;;;;4954984;29;20138;-65
2022/03/03 09:10:44;;;;;;;54.85;41.40;;;9.40;99.90;;;;;;4955336;29;20134;-64
2022/03/03 09:13:11;;;;;;;54.13;38.80;;;9.40;99.90;;;;;;4956442;29;20054;-65
2022/03/03 09:15:38;;;;;;;51.42;38.80;;;9.40;99.90;;;;;;4956352;28;20162;-65
2022/03/03 09:18:05;;;;;;;56.15;39.78;;;9.40;99.90;;;;;;4989621;28;20050;-65
2022/03/03 09:20:33;;;;;;;62.30;50.13;;;9.50;99.90;;;;;;4959739;28;20127;-65
2022/03/03 09:23:00;;;;;;;50.35;38.50;;;9.60;99.90;;;;;;4974998;28;20133;-66
2022/03/03 09:25:27;;;;;;;48.92;36.95;;;9.60;99.90;;;;;;4955138;28;20409;-64
2022/03/03 09:27:54;;;;;;;45.58;32.35;;;9.60;99.90;;;;;;4956801;28;20436;-63
2022/03/03 09:30:21;;;;;;;43.45;35.28;;;9.60;99.90;;;;;;4965296;28;20043;-64
2022/03/03 09:32:49;;;;;;;44.22;34.15;;;9.60;99.90;;;;;;4970981;28;20047;-65
2022/03/03 09:35:16;;;;;;;49.67;38.38;;;9.50;99.90;;;;;;4954486;29;20130;-63
2022/03/03 09:37:43;;;;;;;45.70;34.15;;;9.50;99.90;;;;;;4954668;29;20613;-63
2022/03/03 09:40:10;;;;;;;50.80;38.05;;;9.60;99.90;;;;;;4954414;29;20047;-64
2022/03/03 09:42:37;;;;;;;49.03;34.58;;;9.70;99.90;;;;;;4954119;29;20051;-64
2022/03/03 09:45:05;;;;;;;48.65;33.90;;;9.70;99.90;;;;;;4938526;29;20054;-64
2022/03/03 09:47:37;;;;;;;47.20;33.03;;;9.80;99.90;;;;;;4938480;29;20057;-63
2022/03/03 09:50:05;;;;;;;42.30;33.67;;;9.90;99.90;;;;;;4953804;29;20055;-64
2022/03/03 09:52:33;;;;;;;45.28;34.88;;;10.00;99.90;;;;;;4945366;28;20048;-64
2022/03/03 09:55:01;;;;;;;48.15;36.33;;;10.10;99.90;;;;;;4962297;28;20042;-64
2022/03/03 09:57:28;;;;;;;46.55;36.03;;;10.20;99.90;;;;;;4960516;28;20047;-64
2022/03/03 09:59:57;;;;;;;42.30;33.22;;;10.30;99.90;;;;;;4945136;28;20049;-64
2022/03/03 10:02:24;;;;;;;45.78;33.08;;;10.30;99.90;;;;;;4960397;28;20051;-62
2022/03/03 10:04:55;;;;;;;50.70;34.70;;;10.40;99.90;;;;;;4962342;28;20062;-62
2022/03/03 10:07:23;;;;;;;44.38;33.95;;;10.40;99.90;;;;;;4956258;28;20083;-62
2022/03/03 10:10:10;;;;;;;45.38;34.00;;;10.40;99.90;;;;;;4953745;28;20047;-63
2022/03/03 10:12:46;;;;;;;46.42;32.70;;;10.50;99.90;;;;;;4939999;29;20111;-62
2022/03/03 10:15:14;;;;;;;39.75;31.20;;;10.50;99.90;;;;;;4954586;28;20039;-61
2022/03/03 10:17:41;;;;;;;45.00;30.58;;;10.60;99.90;;;;;;4953029;29;20047;-62
2022/03/03 10:20:09;;;;;;;38.00;29.38;;;10.70;99.90;;;;;;4953774;28;20054;-62
2022/03/03 10:22:47;;;;;;;47.58;33.00;;;10.70;99.90;;;;;;4953623;28;20043;-62
2022/03/03 10:25:15;;;;;;;41.00;30.67;;;10.70;99.90;;;;;;4953295;29;20082;-62
2022/03/03 10:27:43;;;;;;;39.80;32.63;;;10.90;99.90;;;;;;4953475;29;20058;-63
2022/03/03 10:30:10;;;;;;;101.22;86.15;;;10.90;99.90;;;;;;4954326;28;20495;-63
2022/03/03 10:32:39;;;;;;;38.67;31.42;;;11.00;99.90;;;;;;4954788;29;20055;-61
2022/03/03 10:35:14;;;;;;;36.42;30.27;;;11.10;99.90;;;;;;4954410;28;20054;-61
2022/03/03 10:37:43;;;;;;;41.50;30.75;;;11.20;99.90;;;;;;4953400;28;20051;-61
2022/03/03 10:40:11;;;;;;;39.43;31.13;;;11.20;99.90;;;;;;4954827;28;20055;-61
2022/03/03 10:42:42;;;;;;;39.33;30.45;;;11.20;99.90;;;;;;4968290;28;20384;-62
2022/03/03 10:45:11;;;;;;;37.65;30.73;;;11.30;99.90;;;;;;4953176;29;20071;-61
2022/03/03 10:47:42;;;;;;;38.25;29.13;;;11.30;99.90;;;;;;4952923;29;20444;-61
2022/03/03 10:50:09;;;;;;;39.13;28.42;;;11.40;99.90;;;;;;4953124;29;20055;-61
2022/03/03 10:52:40;;;;;;;38.22;27.42;;;11.40;99.90;;;;;;4952690;29;20047;-61
2022/03/03 10:55:11;;;;;;;34.53;25.35;;;11.50;99.90;;;;;;4953028;29;20055;-61
2022/03/03 10:57:51;;;;;;;34.38;26.42;;;11.50;99.90;;;;;;4954026;29;20130;-61
2022/03/03 11:00:19;;;;;;;37.25;27.77;;;11.60;99.90;;;;;;4954418;28;20054;-61
2022/03/03 11:02:48;;;;;;;42.03;27.63;;;11.60;99.90;;;;;;4954111;28;20073;-61
2022/03/03 11:05:16;;;;;;;36.50;26.40;;;11.60;99.90;;;;;;4951661;28;20047;-61
2022/03/03 11:07:45;;;;;;;38.53;27.65;;;11.60;99.90;;;;;;4953517;29;20519;-62
2022/03/03 11:10:16;;;;;;;42.42;31.55;;;11.70;99.90;;;;;;4936892;29;20047;-61
2022/03/03 11:12:44;;;;;;;39.72;28.00;;;11.90;99.90;;;;;;4937395;29;20091;-62
2022/03/03 11:15:11;;;;;;;38.20;30.35;;;11.90;99.90;;;;;;4953900;28;20139;-61
2022/03/03 11:17:39;;;;;;;39.45;31.27;;;12.00;99.90;;;;;;4954230;28;20047;-61
2022/03/03 11:20:07;;;;;;;42.28;31.10;;;12.00;99.90;;;;;;4952978;29;20528;-60
2022/03/03 11:22:34;;;;;;;44.40;31.95;;;12.10;99.90;;;;;;4952893;29;20158;-60
2022/03/03 11:25:03;;;;;;;45.72;32.22;;;12.30;99.90;;;;;;4953238;28;20062;-60
2022/03/03 11:27:32;;;;;;;44.72;31.38;;;12.50;99.90;;;;;;4946266;29;20054;-60
2022/03/03 11:30:15;;;;;;;37.25;28.75;;;12.60;99.90;;;;;;4965296;28;20055;-60
2022/03/03 11:32:42;;;;;;;36.35;27.88;;;12.60;99.90;;;;;;4966933;28;20051;-65
2022/03/03 11:35:15;;;;;;;41.92;31.33;;;12.70;99.90;;;;;;4953598;28;20061;-60
2022/03/03 11:37:44;;;;;;;38.45;27.40;;;12.80;99.90;;;;;;4954000;28;20218;-65
2022/03/03 11:40:18;;;;;;;36.00;28.10;;;12.80;99.90;;;;;;4963283;28;20482;-60
2022/03/03 11:42:53;;;;;;;35.38;25.85;;;12.70;99.90;;;;;;4963623;28;20051;-65
2022/03/03 11:45:31;;;;;;;38.17;27.60;;;12.70;99.90;;;;;;4984114;28;20079;-62
2022/03/03 11:48:12;;;;;;;38.50;28.00;;;12.70;99.90;;;;;;4961037;28;20047;-63
2022/03/03 11:50:39;;;;;;;26.63;19.00;;;12.70;99.90;;;;;;4953458;28;20049;-63
2022/03/03 11:53:09;;;;;;;28.52;20.85;;;12.60;99.90;;;;;;4949312;29;20047;-62
2022/03/03 11:55:41;;;;;;;26.67;19.88;;;12.50;99.90;;;;;;4951672;28;20118;-65
2022/03/03 11:58:12;;;;;;;41.28;33.10;;;12.50;99.90;;;;;;4951967;28;20062;-64
2022/03/03 12:00:47;;;;;;;27.38;19.73;;;12.40;99.90;;;;;;4960312;28;20061;-64
2022/03/03 12:03:15;;;;;;;28.77;21.77;;;12.40;99.90;;;;;;4956878;28;20178;-66
2022/03/03 12:05:47;;;;;;;32.28;20.42;;;12.40;99.90;;;;;;4949570;28;20055;-66
2022/03/03 12:08:14;;;;;;;26.25;17.10;;;12.40;99.90;;;;;;4961176;28;20050;-68
2022/03/03 12:10:57;;;;;;;25.92;16.98;;;12.40;99.90;;;;;;4965137;28;20051;-65
2022/03/03 12:13:28;;;;;;;26.77;19.30;;;12.40;99.90;;;;;;4950887;28;20085;-66
2022/03/03 12:16:28;;;;;;;25.08;18.17;;;12.50;99.90;;;;;;4982721;28;20044;-62
2022/03/03 12:18:56;;;;;;;25.27;17.23;;;12.50;99.90;;;;;;4956909;28;20047;-71
2022/03/03 12:21:24;;;;;;;29.95;18.77;;;12.60;99.90;;;;;;4956670;28;20055;-68
2022/03/03 12:24:14;;;;;;;27.02;18.83;;;12.50;99.90;;;;;;4963178;28;20117;-71
2022/03/03 12:26:56;;;;;;;28.05;18.33;;;12.60;99.90;;;;;;4971925;28;20086;-67
2022/03/03 12:29:49;;;;;;;28.05;18.33;;;12.60;99.90;;;;;;4953232;28;20507;-68
2022/03/03 12:32:39;;;;;;;28.30;17.73;;;12.60;99.90;;;;;;4963977;28;20046;-62
2022/03/03 12:35:06;;;;;;;;;;;12.80;99.90;;;;;;4958112;28;20051;-62
2022/03/03 12:37:33;;;;;;;26.83;19.33;;;12.90;99.90;;;;;;4956390;29;19970;-62
2022/03/03 12:40:04;;;;;;;28.20;17.30;;;13.00;99.90;;;;;;4956636;28;20085;-62
2022/03/03 12:42:32;;;;;;;27.48;19.02;;;13.00;99.90;;;;;;4923429;29;20478;-63
2022/03/03 12:45:01;;;;;;;28.30;19.27;;;13.00;99.90;;;;;;4956636;28;20054;-64